sensor_id;sensor_type;location;lat;lon;timestamp;P1;durP1;ratioP1;P2;durP2;ratioP2
40453;SDS011;26160;51.858;4.398;2022-10-30T00:00:20;27.65;;;11.18;;
40453;SDS011;26160;51.858;4.398;2022-10-30T00:02:46;21.40;;;10.18;;
40453;SDS011;26160;51.858;4.398;2022-10-30T00:05:13;23.67;;;9.45;;
40453;SDS011;26160;51.858;4.398;2022-10-30T00:07:39;17.73;;;9.55;;
40453;SDS011;26160;51.858;4.398;2022-10-30T00:10:06;35.90;;;10.68;;
40453;SDS011;26160;51.858;4.398;2022-10-30T00:12:33;21.75;;;9.82;;
40453;SDS011;26160;51.858;4.398;2022-10-30T00:14:59;23.67;;;10.25;;
40453;SDS011;26160;51.858;4.398;2022-10-30T00:17:25;22.15;;;10.23;;
40453;SDS011;26160;51.858;4.398;2022-10-30T00:19:52;26.70;;;11.00;;
40453;SDS011;26160;51.858;4.398;2022-10-30T00:22:18;19.40;;;9.85;;
40453;SDS011;26160;51.858;4.398;2022-10-30T00:24:44;21.92;;;10.10;;
40453;SDS011;26160;51.858;4.398;2022-10-30T00:27:10;21.75;;;9.77;;
40453;SDS011;26160;51.858;4.398;2022-10-30T00:29:36;24.30;;;11.38;;
40453;SDS011;26160;51.858;4.398;2022-10-30T00:32:02;20.35;;;10.10;;
40453;SDS011;26160;51.858;4.398;2022-10-30T00:34:29;21.92;;;10.68;;
40453;SDS011;26160;51.858;4.398;2022-10-30T00:36:55;22.00;;;10.93;;
40453;SDS011;26160;51.858;4.398;2022-10-30T00:39:21;18.70;;;11.13;;
40453;SDS011;26160;51.858;4.398;2022-10-30T00:41:47;20.02;;;10.60;;
40453;SDS011;26160;51.858;4.398;2022-10-30T00:47:01;23.70;;;10.98;;
40453;SDS011;26160;51.858;4.398;2022-10-30T00:49:30;20.02;;;10.90;;
40453;SDS011;26160;51.858;4.398;2022-10-30T00:52:00;21.88;;;9.88;;
40453;SDS011;26160;51.858;4.398;2022-10-30T00:54:33;29.23;;;12.57;;
40453;SDS011;26160;51.858;4.398;2022-10-30T00:57:01;22.17;;;11.05;;
40453;SDS011;26160;51.858;4.398;2022-10-30T00:59:29;18.85;;;10.98;;
40453;SDS011;26160;51.858;4.398;2022-10-30T01:01:58;24.33;;;12.88;;
40453;SDS011;26160;51.858;4.398;2022-10-30T01:04:27;22.40;;;13.00;;
40453;SDS011;26160;51.858;4.398;2022-10-30T01:06:58;25.73;;;12.32;;
40453;SDS011;26160;51.858;4.398;2022-10-30T01:09:31;21.50;;;12.55;;
40453;SDS011;26160;51.858;4.398;2022-10-30T01:11:58;22.23;;;12.32;;
40453;SDS011;26160;51.858;4.398;2022-10-30T01:14:24;23.42;;;12.75;;
40453;SDS011;26160;51.858;4.398;2022-10-30T01:17:05;22.52;;;11.60;;
40453;SDS011;26160;51.858;4.398;2022-10-30T01:19:55;25.45;;;12.30;;
40453;SDS011;26160;51.858;4.398;2022-10-30T01:22:38;21.35;;;13.15;;
40453;SDS011;26160;51.858;4.398;2022-10-30T01:36:48;21.88;;;13.68;;
40453;SDS011;26160;51.858;4.398;2022-10-30T01:39:32;25.85;;;14.93;;
40453;SDS011;26160;51.858;4.398;2022-10-30T01:42:36;21.80;;;12.57;;
40453;SDS011;26160;51.858;4.398;2022-10-30T01:54:20;24.40;;;13.70;;
40453;SDS011;26160;51.858;4.398;2022-10-30T01:59:51;24.10;;;14.00;;
40453;SDS011;26160;51.858;4.398;2022-10-30T02:02:23;19.95;;;13.52;;
40453;SDS011;26160;51.858;4.398;2022-10-30T02:04:49;25.20;;;14.50;;
40453;SDS011;26160;51.858;4.398;2022-10-30T02:07:15;21.02;;;13.13;;
40453;SDS011;26160;51.858;4.398;2022-10-30T02:09:42;23.88;;;13.45;;
40453;SDS011;26160;51.858;4.398;2022-10-30T02:12:08;21.10;;;11.75;;
40453;SDS011;26160;51.858;4.398;2022-10-30T02:14:36;23.25;;;13.18;;
40453;SDS011;26160;51.858;4.398;2022-10-30T02:17:06;20.77;;;12.85;;
40453;SDS011;26160;51.858;4.398;2022-10-30T02:19:33;26.48;;;14.90;;
40453;SDS011;26160;51.858;4.398;2022-10-30T02:21:59;22.00;;;12.10;;
40453;SDS011;26160;51.858;4.398;2022-10-30T02:24:26;22.23;;;13.75;;
40453;SDS011;26160;51.858;4.398;2022-10-30T02:26:53;28.10;;;13.10;;
40453;SDS011;26160;51.858;4.398;2022-10-30T02:29:19;22.45;;;14.60;;
40453;SDS011;26160;51.858;4.398;2022-10-30T02:31:46;25.00;;;14.43;;
40453;SDS011;26160;51.858;4.398;2022-10-30T02:34:13;24.50;;;13.45;;
40453;SDS011;26160;51.858;4.398;2022-10-30T02:36:39;20.70;;;12.82;;
40453;SDS011;26160;51.858;4.398;2022-10-30T02:39:06;24.30;;;14.20;;
40453;SDS011;26160;51.858;4.398;2022-10-30T02:41:32;22.70;;;14.68;;
40453;SDS011;26160;51.858;4.398;2022-10-30T02:43:58;23.52;;;15.15;;
40453;SDS011;26160;51.858;4.398;2022-10-30T02:46:25;20.73;;;13.88;;
40453;SDS011;26160;51.858;4.398;2022-10-30T02:48:51;22.30;;;13.73;;
40453;SDS011;26160;51.858;4.398;2022-10-30T02:51:17;22.05;;;13.52;;
40453;SDS011;26160;51.858;4.398;2022-10-30T02:53:43;25.20;;;15.35;;
40453;SDS011;26160;51.858;4.398;2022-10-30T02:56:10;27.70;;;14.55;;
40453;SDS011;26160;51.858;4.398;2022-10-30T02:58:38;34.33;;;15.32;;
40453;SDS011;26160;51.858;4.398;2022-10-30T03:01:06;23.40;;;13.60;;
40453;SDS011;26160;51.858;4.398;2022-10-30T03:03:38;20.75;;;13.82;;
40453;SDS011;26160;51.858;4.398;2022-10-30T03:06:05;26.17;;;13.60;;
40453;SDS011;26160;51.858;4.398;2022-10-30T03:08:33;21.48;;;13.55;;
40453;SDS011;26160;51.858;4.398;2022-10-30T03:11:03;24.17;;;13.07;;
40453;SDS011;26160;51.858;4.398;2022-10-30T03:13:39;25.70;;;14.60;;
40453;SDS011;26160;51.858;4.398;2022-10-30T03:16:07;21.95;;;13.75;;
40453;SDS011;26160;51.858;4.398;2022-10-30T03:18:39;25.75;;;13.50;;
40453;SDS011;26160;51.858;4.398;2022-10-30T03:21:06;23.40;;;15.00;;
40453;SDS011;26160;51.858;4.398;2022-10-30T03:23:34;26.00;;;14.27;;
40453;SDS011;26160;51.858;4.398;2022-10-30T03:26:01;22.85;;;13.10;;
40453;SDS011;26160;51.858;4.398;2022-10-30T03:28:29;30.63;;;14.98;;
40453;SDS011;26160;51.858;4.398;2022-10-30T03:31:03;21.35;;;14.27;;
40453;SDS011;26160;51.858;4.398;2022-10-30T03:33:34;27.27;;;14.18;;
40453;SDS011;26160;51.858;4.398;2022-10-30T03:36:02;24.75;;;14.20;;
40453;SDS011;26160;51.858;4.398;2022-10-30T03:38:30;23.27;;;13.95;;
40453;SDS011;26160;51.858;4.398;2022-10-30T03:40:56;21.40;;;13.98;;
40453;SDS011;26160;51.858;4.398;2022-10-30T03:43:23;23.27;;;13.57;;
40453;SDS011;26160;51.858;4.398;2022-10-30T03:45:50;21.20;;;13.27;;
40453;SDS011;26160;51.858;4.398;2022-10-30T03:48:18;27.40;;;15.20;;
40453;SDS011;26160;51.858;4.398;2022-10-30T03:50:46;27.40;;;14.68;;
40453;SDS011;26160;51.858;4.398;2022-10-30T03:53:12;30.45;;;16.00;;
40453;SDS011;26160;51.858;4.398;2022-10-30T03:55:39;24.88;;;14.77;;
40453;SDS011;26160;51.858;4.398;2022-10-30T03:58:05;24.02;;;14.25;;
40453;SDS011;26160;51.858;4.398;2022-10-30T04:00:32;21.88;;;14.43;;
40453;SDS011;26160;51.858;4.398;2022-10-30T04:02:59;19.48;;;12.57;;
40453;SDS011;26160;51.858;4.398;2022-10-30T04:05:26;23.25;;;13.75;;
40453;SDS011;26160;51.858;4.398;2022-10-30T04:07:56;23.00;;;13.73;;
40453;SDS011;26160;51.858;4.398;2022-10-30T04:10:25;23.90;;;14.50;;
40453;SDS011;26160;51.858;4.398;2022-10-30T04:12:51;23.42;;;14.80;;
40453;SDS011;26160;51.858;4.398;2022-10-30T04:15:23;29.55;;;14.10;;
40453;SDS011;26160;51.858;4.398;2022-10-30T04:17:50;23.33;;;14.27;;
40453;SDS011;26160;51.858;4.398;2022-10-30T04:20:19;22.48;;;13.48;;
40453;SDS011;26160;51.858;4.398;2022-10-30T04:22:45;24.30;;;12.95;;
40453;SDS011;26160;51.858;4.398;2022-10-30T04:25:12;22.83;;;14.95;;
40453;SDS011;26160;51.858;4.398;2022-10-30T04:27:39;24.08;;;15.10;;
40453;SDS011;26160;51.858;4.398;2022-10-30T04:30:09;19.88;;;13.00;;
40453;SDS011;26160;51.858;4.398;2022-10-30T04:32:46;22.30;;;13.90;;
40453;SDS011;26160;51.858;4.398;2022-10-30T04:35:14;22.13;;;14.38;;
40453;SDS011;26160;51.858;4.398;2022-10-30T04:37:41;24.27;;;14.48;;
40453;SDS011;26160;51.858;4.398;2022-10-30T04:40:08;26.15;;;14.38;;
40453;SDS011;26160;51.858;4.398;2022-10-30T04:42:34;22.33;;;15.40;;
40453;SDS011;26160;51.858;4.398;2022-10-30T04:45:00;28.50;;;15.00;;
40453;SDS011;26160;51.858;4.398;2022-10-30T04:47:28;24.55;;;13.82;;
40453;SDS011;26160;51.858;4.398;2022-10-30T04:49:55;22.85;;;13.75;;
40453;SDS011;26160;51.858;4.398;2022-10-30T04:52:21;20.50;;;13.10;;
40453;SDS011;26160;51.858;4.398;2022-10-30T04:54:47;20.52;;;11.85;;
40453;SDS011;26160;51.858;4.398;2022-10-30T04:57:13;32.97;;;16.85;;
40453;SDS011;26160;51.858;4.398;2022-10-30T04:59:39;23.90;;;14.10;;
40453;SDS011;26160;51.858;4.398;2022-10-30T05:02:05;22.80;;;14.25;;
40453;SDS011;26160;51.858;4.398;2022-10-30T05:04:31;24.15;;;14.77;;
40453;SDS011;26160;51.858;4.398;2022-10-30T05:06:57;25.38;;;14.95;;
40453;SDS011;26160;51.858;4.398;2022-10-30T05:09:23;26.23;;;14.60;;
40453;SDS011;26160;51.858;4.398;2022-10-30T05:11:49;24.33;;;13.90;;
40453;SDS011;26160;51.858;4.398;2022-10-30T05:14:15;23.50;;;14.68;;
40453;SDS011;26160;51.858;4.398;2022-10-30T05:16:41;27.52;;;15.10;;
40453;SDS011;26160;51.858;4.398;2022-10-30T05:19:08;21.02;;;14.55;;
40453;SDS011;26160;51.858;4.398;2022-10-30T05:21:34;22.13;;;14.27;;
40453;SDS011;26160;51.858;4.398;2022-10-30T05:24:00;24.77;;;15.75;;
40453;SDS011;26160;51.858;4.398;2022-10-30T05:26:26;31.40;;;15.00;;
40453;SDS011;26160;51.858;4.398;2022-10-30T05:28:52;23.35;;;13.80;;
40453;SDS011;26160;51.858;4.398;2022-10-30T05:31:25;27.83;;;16.08;;
40453;SDS011;26160;51.858;4.398;2022-10-30T05:33:52;22.00;;;14.13;;
40453;SDS011;26160;51.858;4.398;2022-10-30T05:36:18;21.98;;;13.70;;
40453;SDS011;26160;51.858;4.398;2022-10-30T05:38:44;17.75;;;11.00;;
40453;SDS011;26160;51.858;4.398;2022-10-30T05:41:11;26.27;;;13.70;;
40453;SDS011;26160;51.858;4.398;2022-10-30T05:43:37;21.70;;;13.68;;
40453;SDS011;26160;51.858;4.398;2022-10-30T05:46:03;23.75;;;13.63;;
40453;SDS011;26160;51.858;4.398;2022-10-30T05:48:29;26.53;;;15.03;;
40453;SDS011;26160;51.858;4.398;2022-10-30T05:50:55;22.40;;;13.75;;
40453;SDS011;26160;51.858;4.398;2022-10-30T05:53:22;23.02;;;14.60;;
40453;SDS011;26160;51.858;4.398;2022-10-30T05:55:48;20.52;;;13.55;;
40453;SDS011;26160;51.858;4.398;2022-10-30T05:58:14;25.73;;;14.70;;
40453;SDS011;26160;51.858;4.398;2022-10-30T06:00:40;25.10;;;14.93;;
40453;SDS011;26160;51.858;4.398;2022-10-30T06:03:09;24.30;;;15.35;;
40453;SDS011;26160;51.858;4.398;2022-10-30T06:05:37;28.92;;;15.02;;
40453;SDS011;26160;51.858;4.398;2022-10-30T06:08:04;23.77;;;15.15;;
40453;SDS011;26160;51.858;4.398;2022-10-30T06:10:31;27.23;;;15.40;;
40453;SDS011;26160;51.858;4.398;2022-10-30T06:12:58;25.63;;;16.10;;
40453;SDS011;26160;51.858;4.398;2022-10-30T06:15:25;23.17;;;15.38;;
40453;SDS011;26160;51.858;4.398;2022-10-30T06:17:56;27.15;;;15.38;;
40453;SDS011;26160;51.858;4.398;2022-10-30T06:20:26;24.45;;;16.20;;
40453;SDS011;26160;51.858;4.398;2022-10-30T06:25:21;23.65;;;16.05;;
40453;SDS011;26160;51.858;4.398;2022-10-30T06:27:47;27.55;;;16.63;;
40453;SDS011;26160;51.858;4.398;2022-10-30T06:30:13;23.92;;;15.27;;
40453;SDS011;26160;51.858;4.398;2022-10-30T06:32:39;24.58;;;13.45;;
40453;SDS011;26160;51.858;4.398;2022-10-30T06:35:05;22.58;;;15.00;;
40453;SDS011;26160;51.858;4.398;2022-10-30T06:37:32;24.10;;;14.98;;
40453;SDS011;26160;51.858;4.398;2022-10-30T06:39:59;29.60;;;17.63;;
40453;SDS011;26160;51.858;4.398;2022-10-30T06:42:25;25.50;;;17.15;;
40453;SDS011;26160;51.858;4.398;2022-10-30T06:44:51;22.73;;;15.40;;
40453;SDS011;26160;51.858;4.398;2022-10-30T06:47:18;28.65;;;16.05;;
40453;SDS011;26160;51.858;4.398;2022-10-30T06:49:44;32.28;;;18.25;;
40453;SDS011;26160;51.858;4.398;2022-10-30T06:52:10;25.88;;;16.50;;
40453;SDS011;26160;51.858;4.398;2022-10-30T06:54:36;25.02;;;16.45;;
40453;SDS011;26160;51.858;4.398;2022-10-30T06:57:03;29.30;;;17.02;;
40453;SDS011;26160;51.858;4.398;2022-10-30T06:59:29;26.50;;;16.80;;
40453;SDS011;26160;51.858;4.398;2022-10-30T07:01:55;28.48;;;19.17;;
40453;SDS011;26160;51.858;4.398;2022-10-30T07:04:22;32.60;;;19.10;;
40453;SDS011;26160;51.858;4.398;2022-10-30T07:06:48;31.02;;;19.23;;
40453;SDS011;26160;51.858;4.398;2022-10-30T07:09:14;42.55;;;21.42;;
40453;SDS011;26160;51.858;4.398;2022-10-30T07:11:40;35.00;;;20.77;;
40453;SDS011;26160;51.858;4.398;2022-10-30T07:14:10;31.13;;;19.25;;
40453;SDS011;26160;51.858;4.398;2022-10-30T07:16:36;41.42;;;21.23;;
40453;SDS011;26160;51.858;4.398;2022-10-30T07:19:02;35.40;;;21.10;;
40453;SDS011;26160;51.858;4.398;2022-10-30T07:21:28;34.45;;;20.33;;
40453;SDS011;26160;51.858;4.398;2022-10-30T07:23:55;33.22;;;19.98;;
40453;SDS011;26160;51.858;4.398;2022-10-30T07:26:21;35.90;;;21.08;;
40453;SDS011;26160;51.858;4.398;2022-10-30T07:28:47;33.40;;;21.65;;
40453;SDS011;26160;51.858;4.398;2022-10-30T07:31:13;35.10;;;20.85;;
40453;SDS011;26160;51.858;4.398;2022-10-30T07:33:39;33.67;;;20.67;;
40453;SDS011;26160;51.858;4.398;2022-10-30T07:36:05;37.58;;;22.65;;
40453;SDS011;26160;51.858;4.398;2022-10-30T07:38:32;33.17;;;19.85;;
40453;SDS011;26160;51.858;4.398;2022-10-30T07:40:58;32.15;;;23.05;;
40453;SDS011;26160;51.858;4.398;2022-10-30T07:43:25;33.50;;;19.85;;
40453;SDS011;26160;51.858;4.398;2022-10-30T07:45:51;37.90;;;22.73;;
40453;SDS011;26160;51.858;4.398;2022-10-30T07:48:17;38.35;;;22.02;;
40453;SDS011;26160;51.858;4.398;2022-10-30T07:50:43;38.70;;;19.42;;
40453;SDS011;26160;51.858;4.398;2022-10-30T07:53:09;42.75;;;25.65;;
40453;SDS011;26160;51.858;4.398;2022-10-30T07:55:35;38.80;;;21.77;;
40453;SDS011;26160;51.858;4.398;2022-10-30T07:58:01;36.60;;;22.85;;
40453;SDS011;26160;51.858;4.398;2022-10-30T08:00:27;38.90;;;22.38;;
40453;SDS011;26160;51.858;4.398;2022-10-30T08:02:56;36.40;;;20.90;;
40453;SDS011;26160;51.858;4.398;2022-10-30T08:05:24;30.60;;;20.13;;
40453;SDS011;26160;51.858;4.398;2022-10-30T08:07:50;25.42;;;18.00;;
40453;SDS011;26160;51.858;4.398;2022-10-30T08:10:16;46.60;;;24.25;;
40453;SDS011;26160;51.858;4.398;2022-10-30T08:12:43;35.42;;;20.08;;
40453;SDS011;26160;51.858;4.398;2022-10-30T08:15:10;32.55;;;19.80;;
40453;SDS011;26160;51.858;4.398;2022-10-30T08:17:40;35.50;;;20.73;;
40453;SDS011;26160;51.858;4.398;2022-10-30T08:20:10;33.65;;;20.88;;
40453;SDS011;26160;51.858;4.398;2022-10-30T08:22:47;34.85;;;20.42;;
40453;SDS011;26160;51.858;4.398;2022-10-30T08:25:15;31.27;;;18.80;;
40453;SDS011;26160;51.858;4.398;2022-10-30T08:27:53;30.67;;;21.98;;
40453;SDS011;26160;51.858;4.398;2022-10-30T08:30:24;40.15;;;19.40;;
40453;SDS011;26160;51.858;4.398;2022-10-30T08:32:56;33.72;;;19.67;;
40453;SDS011;26160;51.858;4.398;2022-10-30T08:35:23;28.88;;;18.42;;
40453;SDS011;26160;51.858;4.398;2022-10-30T08:37:50;34.22;;;19.63;;
40453;SDS011;26160;51.858;4.398;2022-10-30T08:40:23;35.25;;;19.40;;
40453;SDS011;26160;51.858;4.398;2022-10-30T08:42:50;28.83;;;18.83;;
40453;SDS011;26160;51.858;4.398;2022-10-30T08:45:17;29.08;;;18.17;;
40453;SDS011;26160;51.858;4.398;2022-10-30T08:47:44;28.48;;;18.38;;
40453;SDS011;26160;51.858;4.398;2022-10-30T08:50:10;29.95;;;17.63;;
40453;SDS011;26160;51.858;4.398;2022-10-30T08:52:37;29.02;;;17.85;;
40453;SDS011;26160;51.858;4.398;2022-10-30T08:55:03;27.88;;;18.00;;
40453;SDS011;26160;51.858;4.398;2022-10-30T08:57:34;29.52;;;18.50;;
40453;SDS011;26160;51.858;4.398;2022-10-30T09:00:04;25.80;;;16.40;;
40453;SDS011;26160;51.858;4.398;2022-10-30T09:02:30;33.47;;;19.48;;
40453;SDS011;26160;51.858;4.398;2022-10-30T09:04:57;26.75;;;17.85;;
40453;SDS011;26160;51.858;4.398;2022-10-30T09:07:23;25.00;;;16.45;;
40453;SDS011;26160;51.858;4.398;2022-10-30T09:09:49;23.75;;;17.85;;
40453;SDS011;26160;51.858;4.398;2022-10-30T09:12:16;31.30;;;17.10;;
40453;SDS011;26160;51.858;4.398;2022-10-30T09:14:42;27.23;;;15.27;;
40453;SDS011;26160;51.858;4.398;2022-10-30T09:17:08;23.45;;;15.43;;
40453;SDS011;26160;51.858;4.398;2022-10-30T09:19:34;28.15;;;16.17;;
40453;SDS011;26160;51.858;4.398;2022-10-30T09:22:00;30.35;;;14.95;;
40453;SDS011;26160;51.858;4.398;2022-10-30T09:24:26;25.83;;;14.57;;
40453;SDS011;26160;51.858;4.398;2022-10-30T09:26:53;28.38;;;15.25;;
40453;SDS011;26160;51.858;4.398;2022-10-30T09:29:21;34.40;;;15.10;;
40453;SDS011;26160;51.858;4.398;2022-10-30T09:31:47;24.88;;;13.77;;
40453;SDS011;26160;51.858;4.398;2022-10-30T09:34:13;22.10;;;15.02;;
40453;SDS011;26160;51.858;4.398;2022-10-30T09:36:40;35.78;;;16.38;;
40453;SDS011;26160;51.858;4.398;2022-10-30T09:39:08;20.63;;;13.57;;
40453;SDS011;26160;51.858;4.398;2022-10-30T09:47:07;19.35;;;13.07;;
40453;SDS011;26160;51.858;4.398;2022-10-30T09:52:33;19.33;;;12.82;;
40453;SDS011;26160;51.858;4.398;2022-10-30T09:55:25;18.23;;;11.35;;
40453;SDS011;26160;51.858;4.398;2022-10-30T10:00:45;25.27;;;11.63;;
40453;SDS011;26160;51.858;4.398;2022-10-30T10:06:10;20.75;;;11.18;;
40453;SDS011;26160;51.858;4.398;2022-10-30T10:08:41;20.42;;;11.20;;
40453;SDS011;26160;51.858;4.398;2022-10-30T10:11:31;17.92;;;10.13;;
40453;SDS011;26160;51.858;4.398;2022-10-30T10:16:39;19.98;;;10.88;;
40453;SDS011;26160;51.858;4.398;2022-10-30T10:21:55;20.65;;;9.82;;
40453;SDS011;26160;51.858;4.398;2022-10-30T10:24:32;22.73;;;9.70;;
40453;SDS011;26160;51.858;4.398;2022-10-30T10:29:31;22.52;;;9.40;;
40453;SDS011;26160;51.858;4.398;2022-10-30T10:46:06;21.75;;;7.75;;
40453;SDS011;26160;51.858;4.398;2022-10-30T10:48:53;15.35;;;6.63;;
40453;SDS011;26160;51.858;4.398;2022-10-30T10:51:34;19.00;;;8.18;;
40453;SDS011;26160;51.858;4.398;2022-10-30T10:54:10;14.15;;;7.30;;
40453;SDS011;26160;51.858;4.398;2022-10-30T10:56:49;17.70;;;7.47;;
40453;SDS011;26160;51.858;4.398;2022-10-30T10:59:20;17.67;;;7.70;;
40453;SDS011;26160;51.858;4.398;2022-10-30T11:01:59;22.40;;;7.30;;
40453;SDS011;26160;51.858;4.398;2022-10-30T11:04:40;15.95;;;7.03;;
40453;SDS011;26160;51.858;4.398;2022-10-30T11:09:47;15.25;;;7.40;;
40453;SDS011;26160;51.858;4.398;2022-10-30T11:12:19;17.33;;;7.55;;
40453;SDS011;26160;51.858;4.398;2022-10-30T11:18:03;16.90;;;6.53;;
40453;SDS011;26160;51.858;4.398;2022-10-30T11:20:47;15.52;;;6.20;;
40453;SDS011;26160;51.858;4.398;2022-10-30T11:23:32;14.90;;;7.25;;
40453;SDS011;26160;51.858;4.398;2022-10-30T11:26:03;13.68;;;6.53;;
40453;SDS011;26160;51.858;4.398;2022-10-30T11:31:25;14.73;;;7.65;;
40453;SDS011;26160;51.858;4.398;2022-10-30T11:36:28;12.43;;;6.57;;
40453;SDS011;26160;51.858;4.398;2022-10-30T11:38:54;20.48;;;7.45;;
40453;SDS011;26160;51.858;4.398;2022-10-30T11:41:33;17.48;;;6.65;;
40453;SDS011;26160;51.858;4.398;2022-10-30T11:43:59;11.02;;;6.68;;
40453;SDS011;26160;51.858;4.398;2022-10-30T11:46:25;11.70;;;6.63;;
40453;SDS011;26160;51.858;4.398;2022-10-30T11:48:51;14.43;;;7.28;;
40453;SDS011;26160;51.858;4.398;2022-10-30T11:51:32;13.63;;;5.97;;
40453;SDS011;26160;51.858;4.398;2022-10-30T11:54:01;15.50;;;6.60;;
40453;SDS011;26160;51.858;4.398;2022-10-30T11:56:28;22.35;;;9.52;;
40453;SDS011;26160;51.858;4.398;2022-10-30T11:58:57;17.15;;;9.13;;
40453;SDS011;26160;51.858;4.398;2022-10-30T12:01:26;16.77;;;7.07;;
40453;SDS011;26160;51.858;4.398;2022-10-30T12:04:15;17.48;;;6.68;;
40453;SDS011;26160;51.858;4.398;2022-10-30T12:06:54;18.50;;;6.65;;
40453;SDS011;26160;51.858;4.398;2022-10-30T12:09:40;14.23;;;5.85;;
40453;SDS011;26160;51.858;4.398;2022-10-30T12:12:11;15.30;;;6.25;;
40453;SDS011;26160;51.858;4.398;2022-10-30T12:17:39;16.92;;;6.07;;
40453;SDS011;26160;51.858;4.398;2022-10-30T12:20:06;16.50;;;5.95;;
40453;SDS011;26160;51.858;4.398;2022-10-30T12:25:05;13.48;;;5.38;;
40453;SDS011;26160;51.858;4.398;2022-10-30T12:27:44;13.32;;;5.45;;
40453;SDS011;26160;51.858;4.398;2022-10-30T12:30:14;13.55;;;5.63;;
40453;SDS011;26160;51.858;4.398;2022-10-30T12:32:50;11.80;;;4.82;;
40453;SDS011;26160;51.858;4.398;2022-10-30T12:35:23;13.35;;;5.38;;
40453;SDS011;26160;51.858;4.398;2022-10-30T12:38:16;11.80;;;5.50;;
40453;SDS011;26160;51.858;4.398;2022-10-30T12:43:40;10.23;;;4.47;;
40453;SDS011;26160;51.858;4.398;2022-10-30T12:46:13;12.80;;;5.65;;
40453;SDS011;26160;51.858;4.398;2022-10-30T12:49:05;14.70;;;5.70;;
40453;SDS011;26160;51.858;4.398;2022-10-30T12:57:16;9.02;;;4.93;;
40453;SDS011;26160;51.858;4.398;2022-10-30T13:02:18;11.88;;;5.35;;
40453;SDS011;26160;51.858;4.398;2022-10-30T13:05:16;15.82;;;6.93;;
40453;SDS011;26160;51.858;4.398;2022-10-30T13:08:09;16.83;;;6.35;;
40453;SDS011;26160;51.858;4.398;2022-10-30T13:10:52;11.15;;;6.07;;
40453;SDS011;26160;51.858;4.398;2022-10-30T13:13:40;18.70;;;6.30;;
40453;SDS011;26160;51.858;4.398;2022-10-30T13:16:15;12.68;;;6.07;;
40453;SDS011;26160;51.858;4.398;2022-10-30T13:18:45;11.68;;;4.97;;
40453;SDS011;26160;51.858;4.398;2022-10-30T13:26:32;15.18;;;6.88;;
40453;SDS011;26160;51.858;4.398;2022-10-30T13:37:20;13.50;;;6.45;;
40453;SDS011;26160;51.858;4.398;2022-10-30T13:40:02;13.75;;;6.13;;
40453;SDS011;26160;51.858;4.398;2022-10-30T13:49:10;12.60;;;6.05;;
40453;SDS011;26160;51.858;4.398;2022-10-30T13:51:36;10.98;;;4.28;;
40453;SDS011;26160;51.858;4.398;2022-10-30T13:54:07;11.98;;;3.70;;
40453;SDS011;26160;51.858;4.398;2022-10-30T13:56:43;10.88;;;3.67;;
40453;SDS011;26160;51.858;4.398;2022-10-30T14:05:13;11.82;;;4.00;;
40453;SDS011;26160;51.858;4.398;2022-10-30T14:10:41;8.77;;;3.50;;
40453;SDS011;26160;51.858;4.398;2022-10-30T14:13:13;8.23;;;2.85;;
40453;SDS011;26160;51.858;4.398;2022-10-30T14:15:41;5.80;;;2.42;;
40453;SDS011;26160;51.858;4.398;2022-10-30T14:20:36;8.43;;;2.80;;
40453;SDS011;26160;51.858;4.398;2022-10-30T14:23:10;9.35;;;3.22;;
40453;SDS011;26160;51.858;4.398;2022-10-30T14:25:39;12.77;;;3.10;;
40453;SDS011;26160;51.858;4.398;2022-10-30T14:28:18;12.57;;;3.83;;
40453;SDS011;26160;51.858;4.398;2022-10-30T14:30:45;11.85;;;4.15;;
40453;SDS011;26160;51.858;4.398;2022-10-30T14:36:15;11.98;;;4.32;;
40453;SDS011;26160;51.858;4.398;2022-10-30T14:41:24;11.07;;;3.83;;
40453;SDS011;26160;51.858;4.398;2022-10-30T14:51:44;10.63;;;3.72;;
40453;SDS011;26160;51.858;4.398;2022-10-30T14:54:29;10.70;;;3.92;;
40453;SDS011;26160;51.858;4.398;2022-10-30T14:57:10;12.35;;;3.50;;
40453;SDS011;26160;51.858;4.398;2022-10-30T15:02:54;10.70;;;3.83;;
40453;SDS011;26160;51.858;4.398;2022-10-30T15:08:25;10.50;;;4.80;;
40453;SDS011;26160;51.858;4.398;2022-10-30T15:11:06;10.95;;;3.88;;
40453;SDS011;26160;51.858;4.398;2022-10-30T15:13:44;12.60;;;3.90;;
40453;SDS011;26160;51.858;4.398;2022-10-30T15:16:13;13.43;;;4.13;;
40453;SDS011;26160;51.858;4.398;2022-10-30T15:18:44;15.02;;;3.80;;
40453;SDS011;26160;51.858;4.398;2022-10-30T15:21:13;9.38;;;3.92;;
40453;SDS011;26160;51.858;4.398;2022-10-30T15:23:47;9.60;;;3.28;;
40453;SDS011;26160;51.858;4.398;2022-10-30T15:26:17;11.70;;;4.13;;
40453;SDS011;26160;51.858;4.398;2022-10-30T15:28:48;10.00;;;3.80;;
40453;SDS011;26160;51.858;4.398;2022-10-30T15:33:42;7.97;;;2.85;;
40453;SDS011;26160;51.858;4.398;2022-10-30T15:36:21;10.25;;;3.60;;
40453;SDS011;26160;51.858;4.398;2022-10-30T15:41:27;12.75;;;3.50;;
40453;SDS011;26160;51.858;4.398;2022-10-30T15:43:54;9.60;;;3.60;;
40453;SDS011;26160;51.858;4.398;2022-10-30T15:46:22;8.80;;;3.40;;
40453;SDS011;26160;51.858;4.398;2022-10-30T15:48:49;10.85;;;3.90;;
40453;SDS011;26160;51.858;4.398;2022-10-30T15:51:16;15.93;;;4.10;;
40453;SDS011;26160;51.858;4.398;2022-10-30T15:53:53;11.10;;;5.88;;
40453;SDS011;26160;51.858;4.398;2022-10-30T15:59:04;11.48;;;5.20;;
40453;SDS011;26160;51.858;4.398;2022-10-30T16:01:32;15.43;;;5.70;;
40453;SDS011;26160;51.858;4.398;2022-10-30T16:04:15;14.10;;;6.57;;
40453;SDS011;26160;51.858;4.398;2022-10-30T16:06:49;14.90;;;4.97;;
40453;SDS011;26160;51.858;4.398;2022-10-30T16:09:17;14.57;;;5.00;;
40453;SDS011;26160;51.858;4.398;2022-10-30T16:11:44;16.80;;;5.13;;
40453;SDS011;26160;51.858;4.398;2022-10-30T16:14:12;19.42;;;5.68;;
40453;SDS011;26160;51.858;4.398;2022-10-30T16:16:42;12.75;;;5.45;;
40453;SDS011;26160;51.858;4.398;2022-10-30T16:19:15;13.15;;;4.00;;
40453;SDS011;26160;51.858;4.398;2022-10-30T16:21:47;12.68;;;4.60;;
40453;SDS011;26160;51.858;4.398;2022-10-30T16:24:13;13.27;;;4.55;;
40453;SDS011;26160;51.858;4.398;2022-10-30T16:26:41;11.63;;;4.97;;
40453;SDS011;26160;51.858;4.398;2022-10-30T16:31:42;12.35;;;4.70;;
40453;SDS011;26160;51.858;4.398;2022-10-30T16:34:24;10.63;;;4.18;;
40453;SDS011;26160;51.858;4.398;2022-10-30T16:37:04;11.52;;;4.93;;
40453;SDS011;26160;51.858;4.398;2022-10-30T16:39:35;13.57;;;5.65;;
40453;SDS011;26160;51.858;4.398;2022-10-30T16:42:02;12.38;;;5.20;;
40453;SDS011;26160;51.858;4.398;2022-10-30T16:44:29;13.32;;;5.50;;
40453;SDS011;26160;51.858;4.398;2022-10-30T16:49:48;9.25;;;5.15;;
40453;SDS011;26160;51.858;4.398;2022-10-30T16:52:19;13.27;;;5.20;;
40453;SDS011;26160;51.858;4.398;2022-10-30T16:57:27;9.68;;;4.63;;
40453;SDS011;26160;51.858;4.398;2022-10-30T16:59:58;10.93;;;4.70;;
40453;SDS011;26160;51.858;4.398;2022-10-30T17:02:27;12.32;;;4.20;;
40453;SDS011;26160;51.858;4.398;2022-10-30T17:05:07;16.25;;;4.97;;
40453;SDS011;26160;51.858;4.398;2022-10-30T17:07:37;13.35;;;4.53;;
40453;SDS011;26160;51.858;4.398;2022-10-30T17:10:16;11.32;;;4.38;;
40453;SDS011;26160;51.858;4.398;2022-10-30T17:18:47;14.18;;;5.80;;
40453;SDS011;26160;51.858;4.398;2022-10-30T17:21:24;11.85;;;5.10;;
40453;SDS011;26160;51.858;4.398;2022-10-30T17:23:57;15.18;;;5.57;;
40453;SDS011;26160;51.858;4.398;2022-10-30T17:26:25;15.93;;;4.57;;